KOFK/OFK METAR and TAF weather

Enter ICAO airport designator
Station Type Date Time Source
KOFK METAR 2019/12/08 10:56 UTC NOAA

KOFK 081056Z AUTO 00000KT 10SM CLR M02/M03 A2976 RMK AO2 SLP088 T10171033 $


Station Type Date Time Source
KOFK Decoded METAR 2019/12/08 10:56 UTC NOAA

KARL STEFAN MEMORIAL AIRPORT, NE, United States (KOFK) 41-59N 097-26W 470M
Dec 08, 2019 - 05:56 AM EST / 2019.12.08 1056 UTC
Wind: Calm:0
Visibility: 10 mile(s):0
Sky conditions: clear
Temperature: 28.9 F (-1.7 C)
Dew Point: 26.1 F (-3.3 C)
Relative Humidity: 88%
Pressure (altimeter): 29.76 in. Hg (1007 hPa)
ob: KOFK 081056Z AUTO 00000KT 10SM CLR M02/M03 A2976 RMK AO2 SLP088 T10171033
cycle: 11

Station Type Date Time Source
KOFK TAF 2019/12/08 12:22 UTC NOAA

TAF KOFK 081120Z 0812/0912 VRB04KT P6SM BKN200
FM082100 11006KT P6SM OVC200
FM090700 34009KT P6SM OVC030
FM090900 34015G25KT 6SM -SN OVC015

Example: see airport list